createdAt,value
2018-09-01T00:01:06.819Z,10.96
2018-09-01T00:03:35.834Z,10.94
2018-09-01T00:06:04.852Z,10.92
2018-09-01T00:08:34.591Z,10.88
2018-09-01T00:11:03.993Z,10.84
2018-09-01T00:13:33.165Z,10.82
2018-09-01T00:16:02.269Z,10.78
2018-09-01T00:18:31.719Z,10.73
2018-09-01T00:21:01.963Z,10.70
2018-09-01T00:23:30.706Z,10.69
2018-09-01T00:26:00.005Z,10.69
2018-09-01T00:28:28.737Z,10.69
2018-09-01T00:30:57.664Z,10.69
2018-09-01T00:33:26.443Z,10.67
2018-09-01T00:35:55.744Z,10.66
2018-09-01T00:38:29.738Z,10.66
2018-09-01T00:40:58.536Z,10.66
2018-09-01T00:43:27.948Z,10.63
2018-09-01T00:45:56.748Z,10.59
2018-09-01T00:48:25.499Z,10.57
2018-09-01T00:50:54.393Z,10.53
2018-09-01T00:53:23.111Z,10.52
2018-09-01T00:55:55.090Z,10.52
2018-09-01T00:58:25.209Z,10.52
2018-09-01T01:00:55.367Z,10.49
2018-09-01T01:03:25.216Z,10.46
2018-09-01T01:05:54.641Z,10.43
2018-09-01T01:08:24.879Z,10.42
2018-09-01T01:10:53.889Z,10.41
2018-09-01T01:13:22.931Z,10.38
2018-09-01T01:18:42.056Z,10.34
2018-09-01T01:21:10.892Z,10.33
2018-09-01T01:23:39.685Z,10.32
2018-09-01T01:26:09.540Z,10.29
2018-09-01T01:28:38.344Z,10.28
2018-09-01T01:31:07.781Z,10.24
2018-09-01T01:33:36.914Z,10.22
2018-09-01T01:36:05.703Z,10.21
2018-09-01T01:38:34.429Z,10.18
2018-09-01T01:41:03.466Z,10.16
2018-09-01T01:43:32.686Z,10.14
2018-09-01T01:46:01.455Z,10.08
2018-09-01T01:48:30.758Z,10.05
2018-09-01T01:50:59.530Z,10.03
2018-09-01T01:53:28.293Z,10.01
2018-09-01T01:55:57.347Z,9.99
2018-09-01T01:58:26.386Z,9.98
2018-09-01T02:00:55.421Z,9.97
2018-09-01T02:03:24.652Z,9.93
2018-09-01T02:05:53.627Z,9.91
2018-09-01T02:08:22.422Z,9.88
2018-09-01T02:10:51.224Z,9.88
2018-09-01T02:13:19.974Z,9.85
2018-09-01T02:15:48.801Z,9.83
2018-09-01T02:18:17.831Z,9.79
2018-09-01T02:20:46.876Z,9.75
2018-09-01T02:23:15.641Z,9.73
2018-09-01T02:25:44.653Z,9.72
2018-09-01T02:28:13.699Z,9.66
2018-09-01T02:30:42.447Z,9.65
2018-09-01T02:33:11.551Z,9.62
2018-09-01T02:35:40.527Z,9.61
2018-09-01T02:38:09.830Z,9.59
2018-09-01T02:40:38.668Z,9.60
2018-09-01T02:43:07.716Z,9.61
2018-09-01T02:45:36.766Z,9.60
2018-09-01T02:48:05.795Z,9.59
2018-09-01T02:50:34.569Z,9.59
2018-09-01T02:53:03.676Z,9.57
2018-09-01T02:55:32.432Z,9.54
2018-09-01T02:58:01.190Z,9.50
2018-09-01T03:00:35.969Z,9.48
2018-09-01T03:03:04.761Z,9.47
2018-09-01T03:05:33.516Z,9.46
2018-09-01T03:08:02.912Z,9.44
2018-09-01T03:10:31.701Z,9.41
2018-09-01T03:13:00.757Z,9.40
2018-09-01T03:15:30.115Z,9.38
2018-09-01T03:17:59.433Z,9.36
2018-09-01T03:20:28.243Z,9.35
2018-09-01T03:22:57.006Z,9.33
2018-09-01T03:25:26.343Z,9.32
2018-09-01T03:27:55.115Z,9.32
2018-09-01T03:30:24.016Z,9.32
2018-09-01T03:32:53.161Z,9.30
2018-09-01T03:35:22.169Z,9.27
2018-09-01T03:37:51.514Z,9.26
2018-09-01T03:40:20.595Z,9.27
2018-09-01T03:42:50.027Z,9.24
2018-09-01T03:45:19.200Z,9.23
2018-09-01T03:47:48.002Z,9.21
2018-09-01T03:50:16.796Z,9.19
2018-09-01T03:52:46.369Z,9.18
2018-09-01T03:55:15.802Z,9.14
2018-09-01T03:57:45.543Z,9.13
2018-09-01T04:00:14.653Z,9.11
2018-09-01T04:02:43.538Z,9.10
2018-09-01T04:05:12.297Z,9.08
2018-09-01T04:07:41.448Z,9.06
2018-09-01T04:10:10.696Z,9.05
2018-09-01T04:12:40.451Z,9.04
2018-09-01T04:15:09.571Z,9.02
2018-09-01T04:17:38.605Z,9.01
2018-09-01T04:20:07.354Z,8.98
2018-09-01T04:22:36.487Z,8.96
2018-09-01T04:25:05.297Z,8.96
2018-09-01T04:27:34.063Z,8.95
2018-09-01T04:30:03.152Z,8.95
2018-09-01T04:32:32.204Z,8.94
2018-09-01T04:35:01.409Z,8.93
2018-09-01T04:37:30.239Z,8.92
2018-09-01T04:39:59.003Z,8.89
2018-09-01T04:42:27.783Z,8.88
2018-09-01T04:44:57.039Z,8.88
2018-09-01T04:47:26.058Z,8.88
2018-09-01T04:49:55.225Z,8.90
2018-09-01T04:52:23.995Z,8.89
2018-09-01T04:54:53.503Z,8.89
2018-09-01T04:57:22.306Z,8.90
2018-09-01T04:59:51.394Z,8.91
2018-09-01T05:02:20.135Z,8.93
2018-09-01T05:04:48.990Z,8.94
2018-09-01T05:07:18.353Z,8.92
2018-09-01T05:09:47.755Z,8.94
2018-09-01T05:12:16.498Z,8.95
2018-09-01T05:14:46.614Z,8.96
2018-09-01T05:17:16.099Z,8.96
2018-09-01T05:19:45.656Z,8.96
2018-09-01T05:22:14.461Z,8.97
2018-09-01T05:24:43.236Z,8.99
2018-09-01T05:27:12.376Z,9.03
2018-09-01T05:29:41.165Z,9.04
2018-09-01T05:32:10.448Z,9.05
2018-09-01T05:34:39.231Z,9.05
2018-09-01T05:37:08.329Z,9.07
2018-09-01T05:39:37.122Z,9.09
2018-09-01T05:42:06.231Z,9.11
2018-09-01T05:44:35.604Z,9.17
2018-09-01T05:47:04.595Z,9.22
2018-09-01T05:49:33.805Z,9.25
2018-09-01T05:52:02.687Z,9.29
2018-09-01T05:54:32.148Z,9.32
2018-09-01T05:57:01.672Z,9.37
2018-09-01T05:59:30.452Z,9.41
2018-09-01T06:01:59.239Z,9.46
2018-09-01T06:04:28.219Z,9.52
2018-09-01T06:06:57.040Z,9.56
2018-09-01T06:09:25.812Z,9.61
2018-09-01T06:11:54.533Z,9.66
2018-09-01T06:14:23.990Z,9.71
2018-09-01T06:16:52.811Z,9.76
2018-09-01T06:19:21.884Z,9.83
2018-09-01T06:21:51.269Z,9.89
2018-09-01T06:24:20.640Z,9.96
2018-09-01T06:26:49.502Z,10.01
2018-09-01T06:29:19.597Z,10.08
2018-09-01T06:31:53.757Z,10.16
2018-09-01T06:34:22.899Z,10.23
2018-09-01T06:36:51.926Z,10.30
2018-09-01T06:39:21.037Z,10.38
2018-09-01T06:41:51.136Z,10.49
2018-09-01T06:44:20.875Z,10.60
2018-09-01T06:46:49.882Z,10.66
2018-09-01T06:49:19.369Z,10.76
2018-09-01T06:51:48.836Z,10.86
2018-09-01T06:54:17.628Z,10.99
2018-09-01T06:56:46.438Z,11.12
2018-09-01T06:59:15.189Z,11.24
2018-09-01T07:01:44.563Z,11.34
2018-09-01T07:04:13.663Z,11.45
2018-09-01T07:06:43.097Z,11.56
2018-09-01T07:09:11.856Z,11.65
2018-09-01T07:11:40.866Z,11.76
2018-09-01T07:14:09.645Z,11.86
2018-09-01T07:16:38.369Z,11.95
2018-09-01T07:19:07.350Z,12.06
2018-09-01T07:21:36.196Z,12.18
2018-09-01T07:24:04.933Z,12.31
2018-09-01T07:26:34.293Z,12.42
2018-09-01T07:29:03.078Z,12.53
2018-09-01T07:31:32.423Z,12.67
2018-09-01T07:34:01.201Z,12.80
2018-09-01T07:36:30.263Z,12.95
2018-09-01T07:38:59.257Z,13.06
2018-09-01T07:41:28.404Z,13.19
2018-09-01T07:43:57.434Z,13.42
2018-09-01T07:46:26.202Z,13.59
2018-09-01T07:48:55.359Z,13.77
2018-09-01T07:51:24.433Z,13.94
2018-09-01T07:53:53.223Z,14.11
2018-09-01T07:56:21.963Z,14.31
2018-09-01T07:58:50.719Z,14.59
2018-09-01T08:01:19.913Z,14.74
2018-09-01T08:03:48.996Z,14.94
2018-09-01T08:06:17.743Z,15.14
2018-09-01T08:08:46.533Z,15.33
2018-09-01T08:11:15.542Z,15.47
2018-09-01T08:13:44.854Z,15.64
2018-09-01T08:16:14.050Z,15.81
2018-09-01T08:18:43.161Z,16.04
2018-09-01T08:21:12.282Z,16.20
2018-09-01T08:23:41.197Z,16.38
2018-09-01T08:26:10.077Z,16.55
2018-09-01T08:28:38.810Z,16.69
2018-09-01T08:31:07.587Z,16.80
2018-09-01T08:33:36.387Z,16.90
2018-09-01T08:36:05.197Z,17.04
2018-09-01T08:38:34.535Z,17.24
2018-09-01T08:41:03.605Z,17.40
2018-09-01T08:43:32.368Z,17.55
2018-09-01T08:46:01.194Z,17.74
2018-09-01T08:48:30.184Z,17.90
2018-09-01T08:50:59.246Z,18.01
2018-09-01T08:53:28.627Z,18.14
2018-09-01T08:55:57.594Z,18.33
2018-09-01T08:58:27.344Z,18.48
2018-09-01T09:00:56.071Z,18.66
2018-09-01T09:03:25.202Z,18.82
2018-09-01T09:05:54.275Z,18.96
2018-09-01T09:08:23.009Z,19.12
2018-09-01T09:10:51.994Z,19.26
2018-09-01T09:13:21.319Z,19.41
2018-09-01T09:15:50.320Z,19.55
2018-09-01T09:18:19.088Z,19.66
2018-09-01T09:20:48.420Z,19.68
2018-09-01T09:23:17.161Z,19.84
2018-09-01T09:25:46.310Z,19.97
2018-09-01T09:28:15.322Z,20.09
2018-09-01T09:30:44.435Z,20.15
2018-09-01T09:33:13.508Z,20.17
2018-09-01T09:35:42.597Z,20.09
2018-09-01T09:38:11.381Z,19.87
2018-09-01T09:40:40.460Z,19.81
2018-09-01T09:43:09.291Z,19.92
2018-09-01T09:45:38.372Z,20.04
2018-09-01T09:48:07.109Z,20.25
2018-09-01T09:50:35.910Z,20.53
2018-09-01T09:53:04.767Z,20.71
2018-09-01T09:55:34.472Z,20.67
2018-09-01T09:58:03.592Z,20.53
2018-09-01T10:00:37.482Z,20.30
2018-09-01T10:03:06.272Z,20.22
2018-09-01T10:05:35.299Z,20.38
2018-09-01T10:08:04.065Z,20.62
2018-09-01T10:10:32.845Z,20.88
2018-09-01T10:13:01.629Z,21.12
2018-09-01T10:15:31.313Z,21.35
2018-09-01T10:18:00.433Z,21.67
2018-09-01T10:20:29.651Z,21.93
2018-09-01T10:22:58.889Z,22.12
2018-09-01T10:25:28.958Z,22.15
2018-09-01T10:27:57.970Z,22.33
2018-09-01T10:30:26.723Z,22.36
2018-09-01T10:32:55.788Z,22.48
2018-09-01T10:35:24.713Z,22.62
2018-09-01T10:37:53.524Z,22.72
2018-09-01T10:40:22.667Z,22.91
2018-09-01T10:42:51.680Z,23.02
2018-09-01T10:45:20.922Z,23.22
2018-09-01T10:47:49.685Z,23.30
2018-09-01T10:50:18.751Z,23.25
2018-09-01T10:52:47.796Z,23.04
2018-09-01T10:55:16.580Z,23.27
2018-09-01T10:57:45.321Z,23.58
2018-09-01T11:00:14.449Z,23.96
2018-09-01T11:02:43.259Z,23.98
2018-09-01T11:05:12.013Z,23.84
2018-09-01T11:07:41.051Z,23.62
2018-09-01T11:10:09.867Z,23.65
2018-09-01T11:12:38.931Z,23.64
2018-09-01T11:15:07.659Z,23.83
2018-09-01T11:17:36.491Z,23.92
2018-09-01T11:20:05.340Z,24.36
2018-09-01T11:22:34.719Z,24.68
2018-09-01T11:25:03.567Z,24.93
2018-09-01T11:27:32.601Z,25.08
2018-09-01T11:30:01.390Z,25.24
2018-09-01T11:32:30.107Z,25.48
2018-09-01T11:34:58.875Z,25.14
2018-09-01T11:37:27.828Z,24.63
2018-09-01T11:39:56.534Z,24.41
2018-09-01T11:42:25.323Z,24.32
2018-09-01T11:44:54.074Z,23.91
2018-09-01T11:47:23.125Z,23.71
2018-09-01T11:49:52.206Z,23.53
2018-09-01T11:52:21.563Z,23.45
2018-09-01T11:54:50.272Z,23.40
2018-09-01T11:57:19.363Z,23.56
2018-09-01T11:59:48.330Z,23.87
2018-09-01T12:02:17.511Z,24.33
2018-09-01T12:04:46.519Z,24.81
2018-09-01T12:07:15.340Z,24.92
2018-09-01T12:09:44.161Z,25.15
2018-09-01T12:12:12.909Z,25.05
2018-09-01T12:14:41.966Z,24.86
2018-09-01T12:17:10.710Z,24.91
2018-09-01T12:19:40.057Z,25.07
2018-09-01T12:22:09.067Z,25.03
2018-09-01T12:24:38.143Z,24.86
2018-09-01T12:27:07.437Z,24.89
2018-09-01T12:29:36.618Z,24.89
2018-09-01T12:32:05.864Z,24.62
2018-09-01T12:34:35.656Z,24.41
2018-09-01T12:37:04.712Z,24.13
2018-09-01T12:39:33.692Z,23.92
2018-09-01T12:42:03.270Z,23.74
2018-09-01T12:44:31.987Z,23.65
2018-09-01T12:47:00.986Z,23.51
2018-09-01T12:49:30.617Z,23.45
2018-09-01T12:51:59.854Z,23.41
2018-09-01T12:54:28.609Z,23.68
2018-09-01T12:56:57.646Z,24.10
2018-09-01T12:59:26.825Z,24.55
2018-09-01T13:01:55.565Z,24.98
2018-09-01T13:04:24.262Z,25.41
2018-09-01T13:06:53.381Z,25.52
2018-09-01T13:09:22.642Z,25.54
2018-09-01T13:11:51.362Z,25.57
2018-09-01T13:14:20.124Z,25.49
2018-09-01T13:16:49.096Z,25.57
2018-09-01T13:19:18.215Z,25.78
2018-09-01T13:21:47.025Z,26.19
2018-09-01T13:24:15.785Z,26.52
2018-09-01T13:26:44.519Z,26.72
2018-09-01T13:29:13.329Z,26.84
2018-09-01T13:31:42.788Z,27.11
2018-09-01T13:34:11.583Z,26.87
2018-09-01T13:36:40.333Z,26.76
2018-09-01T13:39:09.115Z,26.86
2018-09-01T13:41:37.835Z,27.03
2018-09-01T13:44:07.314Z,26.86
2018-09-01T13:46:36.352Z,27.04
2018-09-01T13:49:05.393Z,27.09
2018-09-01T13:51:34.483Z,27.11
2018-09-01T13:54:03.259Z,27.07
2018-09-01T13:56:31.967Z,26.93
2018-09-01T13:59:00.728Z,26.88
2018-09-01T14:01:29.787Z,26.77
2018-09-01T14:03:58.823Z,26.56
2018-09-01T14:06:28.264Z,26.66
2018-09-01T14:08:57.275Z,26.98
2018-09-01T14:11:26.686Z,26.96
2018-09-01T14:13:55.468Z,26.53
2018-09-01T14:16:24.899Z,26.18
2018-09-01T14:18:53.672Z,26.06
2018-09-01T14:21:22.382Z,25.95
2018-09-01T14:23:51.828Z,25.82
2018-09-01T14:26:21.054Z,25.75
2018-09-01T14:28:49.771Z,25.78
2018-09-01T14:31:19.053Z,26.00
2018-09-01T14:33:48.123Z,26.18
2018-09-01T14:36:17.172Z,26.30
2018-09-01T14:38:46.309Z,26.25
2018-09-01T14:41:15.091Z,26.32
2018-09-01T14:43:44.111Z,26.47
2018-09-01T14:46:13.293Z,26.54
2018-09-01T14:48:42.040Z,26.74
2018-09-01T14:51:10.803Z,26.99
2018-09-01T14:53:40.019Z,27.28
2018-09-01T14:56:08.940Z,27.36
2018-09-01T14:58:37.677Z,27.36
2018-09-01T15:01:06.442Z,27.32
2018-09-01T15:03:35.258Z,27.37
2018-09-01T15:06:04.029Z,27.43
2018-09-01T15:08:33.208Z,27.28
2018-09-01T15:11:02.293Z,26.94
2018-09-01T15:13:31.122Z,26.74
2018-09-01T15:16:00.274Z,26.52
2018-09-01T15:18:29.288Z,26.17
2018-09-01T15:20:58.641Z,26.00
2018-09-01T15:23:27.481Z,25.90
2018-09-01T15:25:56.206Z,25.92
2018-09-01T15:28:25.011Z,25.67
2018-09-01T15:30:54.018Z,25.46
2018-09-01T15:33:22.693Z,25.26
2018-09-01T15:35:51.450Z,25.16
2018-09-01T15:38:20.811Z,24.94
2018-09-01T15:40:49.892Z,24.83
2018-09-01T15:43:18.838Z,24.62
2018-09-01T15:45:47.608Z,24.21
2018-09-01T15:48:16.458Z,23.83
2018-09-01T15:50:45.635Z,23.57
2018-09-01T15:53:15.064Z,23.31
2018-09-01T15:55:44.185Z,23.14
2018-09-01T15:58:12.966Z,23.07
2018-09-01T16:00:41.676Z,23.01
2018-09-01T16:03:10.863Z,22.92
2018-09-01T16:05:39.916Z,22.79
2018-09-01T16:08:08.895Z,22.74
2018-09-01T16:10:37.623Z,22.59
2018-09-01T16:13:13.334Z,22.58
2018-09-01T16:15:42.349Z,22.55
2018-09-01T16:18:11.164Z,22.51
2018-09-01T16:20:40.212Z,22.36
2018-09-01T16:23:09.333Z,22.09
2018-09-01T16:25:38.715Z,21.92
2018-09-01T16:28:07.519Z,21.86
2018-09-01T16:30:36.317Z,21.92
2018-09-01T16:33:05.044Z,21.90
2018-09-01T16:35:33.760Z,21.76
2018-09-01T16:38:02.969Z,21.67
2018-09-01T16:40:31.982Z,21.59
2018-09-01T16:43:00.722Z,21.44
2018-09-01T16:45:30.405Z,21.32
2018-09-01T16:47:59.415Z,21.29
2018-09-01T16:50:28.458Z,21.33
2018-09-01T16:52:57.153Z,21.37
2018-09-01T16:55:26.492Z,21.13
2018-09-01T16:57:55.762Z,21.02
2018-09-01T17:00:24.539Z,21.02
2018-09-01T17:02:53.239Z,20.98
2018-09-01T17:05:21.961Z,20.95
2018-09-01T17:07:50.780Z,20.87
2018-09-01T17:10:20.154Z,20.81
2018-09-01T17:12:49.343Z,20.78
2018-09-01T17:15:18.598Z,20.74
2018-09-01T17:17:47.855Z,20.74
2018-09-01T17:20:17.147Z,20.61
2018-09-01T17:22:46.511Z,20.50
2018-09-01T17:25:15.604Z,20.45
2018-09-01T17:27:44.617Z,20.34
2018-09-01T17:30:13.638Z,20.31
2018-09-01T17:32:42.878Z,20.24
2018-09-01T17:35:12.103Z,20.19
2018-09-01T17:37:41.270Z,20.09
2018-09-01T17:40:10.321Z,20.08
2018-09-01T17:42:39.400Z,20.08
2018-09-01T17:45:08.758Z,19.96
2018-09-01T17:47:37.436Z,19.91
2018-09-01T17:50:06.561Z,19.85
2018-09-01T17:52:36.015Z,19.76
2018-09-01T17:55:05.498Z,19.72
2018-09-01T17:57:34.579Z,19.61
2018-09-01T18:00:03.809Z,19.51
2018-09-01T18:02:32.624Z,19.47
2018-09-01T18:05:01.384Z,19.41
2018-09-01T18:07:30.099Z,19.38
2018-09-01T18:09:59.370Z,19.35
2018-09-01T18:12:28.417Z,19.27
2018-09-01T18:14:57.161Z,19.22
2018-09-01T18:17:26.070Z,19.22
2018-09-01T18:19:54.803Z,19.21
2018-09-01T18:22:23.601Z,19.19
2018-09-01T18:24:52.305Z,19.16
2018-09-01T18:27:21.358Z,19.10
2018-09-01T18:29:50.342Z,19.00
2018-09-01T18:32:19.112Z,18.91
2018-09-01T18:34:48.146Z,18.78
2018-09-01T18:37:16.830Z,18.63
2018-09-01T18:39:45.646Z,18.55
2018-09-01T18:42:14.834Z,18.50
2018-09-01T18:44:43.887Z,18.38
2018-09-01T18:47:12.677Z,18.29
2018-09-01T18:49:42.068Z,18.24
2018-09-01T18:52:10.875Z,18.18
2018-09-01T18:54:40.063Z,18.14
2018-09-01T18:57:09.175Z,18.04
2018-09-01T18:59:38.257Z,17.99
2018-09-01T19:02:07.027Z,17.93
2018-09-01T19:04:35.758Z,17.87
2018-09-01T19:07:04.462Z,17.83
2018-09-01T19:09:33.237Z,17.77
2018-09-01T19:12:02.202Z,17.72
2018-09-01T19:14:32.096Z,17.65
2018-09-01T19:17:01.054Z,17.61
2018-09-01T19:19:29.865Z,17.57
2018-09-01T19:21:58.752Z,17.48
2018-09-01T19:24:27.631Z,17.42
2018-09-01T19:26:56.695Z,17.34
2018-09-01T19:29:26.185Z,17.27
2018-09-01T19:31:57.927Z,17.22
2018-09-01T19:34:27.130Z,17.17
2018-09-01T19:36:55.853Z,17.12
2018-09-01T19:39:24.629Z,17.09
2018-09-01T19:41:53.976Z,17.06
2018-09-01T19:44:22.699Z,17.03
2018-09-01T19:46:51.711Z,17.01
2018-09-01T19:49:20.494Z,16.98
2018-09-01T19:51:49.245Z,16.96
2018-09-01T19:54:18.260Z,16.93
2018-09-01T19:56:46.952Z,16.90
2018-09-01T19:59:15.778Z,16.88
2018-09-01T20:01:44.907Z,16.85
2018-09-01T20:04:13.945Z,16.83
2018-09-01T20:06:42.798Z,16.78
2018-09-01T20:09:11.547Z,16.75
2018-09-01T20:11:40.603Z,16.72
2018-09-01T20:14:09.948Z,16.68
2018-09-01T20:16:38.637Z,16.65
2018-09-01T20:19:07.387Z,16.63
2018-09-01T20:21:36.187Z,16.60
2018-09-01T20:24:05.120Z,16.59
2018-09-01T20:26:34.162Z,16.55
2018-09-01T20:29:02.920Z,16.51
2018-09-01T20:31:32.191Z,16.48
2018-09-01T20:34:02.106Z,16.42
2018-09-01T20:36:31.167Z,16.38
2018-09-01T20:39:00.250Z,16.32
2018-09-01T20:41:29.247Z,16.28
2018-09-01T20:43:58.783Z,16.26
2018-09-01T20:46:27.482Z,16.24
2018-09-01T20:48:56.635Z,16.21
2018-09-01T20:51:25.830Z,16.20
2018-09-01T20:53:55.211Z,16.15
2018-09-01T20:56:24.323Z,16.15
2018-09-01T20:58:53.213Z,16.10
2018-09-01T21:01:21.953Z,16.06
2018-09-01T21:03:50.985Z,16.03
2018-09-01T21:06:20.148Z,16.00
2018-09-01T21:08:48.913Z,15.97
2018-09-01T21:11:18.090Z,15.94
2018-09-01T21:13:47.038Z,15.90
2018-09-01T21:16:16.081Z,15.83
2018-09-01T21:18:45.209Z,15.78
2018-09-01T21:21:15.179Z,15.76
2018-09-01T21:23:43.910Z,15.73
2018-09-01T21:26:13.004Z,15.71
2018-09-01T21:28:42.445Z,15.69
2018-09-01T21:31:11.293Z,15.66
2018-09-01T21:33:40.068Z,15.63
2018-09-01T21:36:09.979Z,15.59
2018-09-01T21:38:38.866Z,15.56
2018-09-01T21:41:07.665Z,15.55
2018-09-01T21:43:37.114Z,15.51
2018-09-01T21:46:06.005Z,15.48
2018-09-01T21:48:35.080Z,15.46
2018-09-01T21:51:04.489Z,15.43
2018-09-01T21:53:33.242Z,15.39
2018-09-01T21:56:02.439Z,15.35
2018-09-01T21:58:31.868Z,15.33
2018-09-01T22:01:05.902Z,15.33
2018-09-01T22:03:39.298Z,15.28
2018-09-01T22:06:08.143Z,15.23
2018-09-01T22:08:37.167Z,15.20
2018-09-01T22:11:06.012Z,15.16
2018-09-01T22:13:34.854Z,15.11
2018-09-01T22:16:03.611Z,15.08
2018-09-01T22:18:32.463Z,15.03
2018-09-01T22:21:01.247Z,15.00
2018-09-01T22:23:30.133Z,14.98
2018-09-01T22:25:59.138Z,14.94
2018-09-01T22:28:27.862Z,14.91
2018-09-01T22:30:56.958Z,14.89
2018-09-01T22:33:26.535Z,14.84
2018-09-01T22:35:55.367Z,14.79
2018-09-01T22:38:24.130Z,14.73
2018-09-01T22:40:54.034Z,14.69
2018-09-01T22:43:23.233Z,14.64
2018-09-01T22:45:52.414Z,14.61
2018-09-01T22:48:21.629Z,14.58
2018-09-01T22:50:50.390Z,14.54
2018-09-01T22:53:19.267Z,14.51
2018-09-01T22:55:48.284Z,14.48
2018-09-01T22:58:17.084Z,14.46
2018-09-01T23:00:46.281Z,14.42
2018-09-01T23:03:15.202Z,14.37
2018-09-01T23:05:43.989Z,14.32
2018-09-01T23:10:52.642Z,14.19
2018-09-01T23:13:21.937Z,14.14
2018-09-01T23:15:50.683Z,14.10
2018-09-01T23:18:19.441Z,14.05
2018-09-01T23:20:48.755Z,14.01
2018-09-01T23:23:17.806Z,13.95
2018-09-01T23:25:46.534Z,13.91
2018-09-01T23:28:15.323Z,13.88
2018-09-01T23:30:44.086Z,13.86
2018-09-01T23:33:13.002Z,13.84
2018-09-01T23:35:41.732Z,13.83
2018-09-01T23:38:10.529Z,13.81
2018-09-01T23:40:40.066Z,13.82
2018-09-01T23:43:08.818Z,13.80
2018-09-01T23:45:37.925Z,13.79
2018-09-01T23:48:07.031Z,13.77
2018-09-01T23:50:36.095Z,13.75
2018-09-01T23:53:05.006Z,13.72
2018-09-01T23:55:34.091Z,13.69
2018-09-01T23:58:03.220Z,13.68
